CES5258 ZGGG-ZSQD
Flight info
| Callsign | CES5258 |
|---|---|
| Flight time | N/A |
| Altitude | 33100 |
| Route | LMN9 LMN G471 XEBUL DCT ODOPI DCT AKAVO DCT DST W117 BEGMO W13 PINOT B221 IDVEL IDV91A |
| Aircraft | A346/H-SDE2E3FGHIJ3J4J5M1RWXY/LB1D1 |
Departure
| Time | 2026-05-06 15:35 |
|---|---|
| Airport | Guangzhou Baiyun International Airport (ZGGG) |
Arrival
| Time | N/A |
|---|---|
| Airport | Qingdao Jiaodong International Airport (ZSQD) |
| Time | Latitude | Longitude | Altitude | Speed | Heading |
|---|---|---|---|---|---|
| 2026-05-06 15:06 | 23.38277 | 113.30091 | 67 ft | 0 kts | 24° |
| 2026-05-06 15:23 | 23.38273 | 113.30089 | 57 ft | 4 kts | 24° |
| 2026-05-06 15:24 | 23.38248 | 113.30077 | 67 ft | 4 kts | 24° |
| 2026-05-06 15:24 | 23.38229 | 113.30066 | 57 ft | 4 kts | 42° |
| 2026-05-06 15:24 | 23.38220 | 113.30051 | 67 ft | 4 kts | 82° |
| 2026-05-06 15:24 | 23.38223 | 113.30031 | 57 ft | 4 kts | 118° |
| 2026-05-06 15:25 | 23.38238 | 113.30009 | 57 ft | 4 kts | 137° |
| 2026-05-06 15:25 | 23.38246 | 113.30002 | 67 ft | 0 kts | 142° |
| 2026-05-06 15:29 | 23.38225 | 113.30020 | 59 ft | 11 kts | 142° |
| 2026-05-06 15:29 | 23.38164 | 113.30129 | 59 ft | 19 kts | 108° |
| 2026-05-06 15:30 | 23.38133 | 113.30261 | 59 ft | 16 kts | 104° |
| 2026-05-06 15:30 | 23.38103 | 113.30394 | 59 ft | 20 kts | 104° |
| 2026-05-06 15:30 | 23.38008 | 113.30449 | 59 ft | 18 kts | 187° |
| 2026-05-06 15:30 | 23.37902 | 113.30422 | 66 ft | 0 kts | 193° |
| 2026-05-06 15:31 | 23.37892 | 113.30419 | 64 ft | 5 kts | 193° |
| 2026-05-06 15:32 | 23.37701 | 113.30367 | 60 ft | 16 kts | 194° |
| 2026-05-06 15:32 | 23.37620 | 113.30403 | 61 ft | 9 kts | 112° |
| 2026-05-06 15:32 | 23.37616 | 113.30430 | 66 ft | 0 kts | 96° |
| 2026-05-06 15:33 | 23.37615 | 113.30443 | 66 ft | 3 kts | 96° |
| 2026-05-06 15:34 | 23.37608 | 113.30476 | 62 ft | 6 kts | 104° |
| 2026-05-06 15:34 | 23.37613 | 113.30529 | 59 ft | 8 kts | 61° |
| 2026-05-06 15:34 | 23.37675 | 113.30560 | 59 ft | 12 kts | 15° |
| 2026-05-06 15:34 | 23.37867 | 113.30615 | 59 ft | 62 kts | 14° |
| 2026-05-06 15:35 | 23.38512 | 113.30789 | 60 ft | 127 kts | 14° |
| 2026-05-06 15:35 | 23.39551 | 113.31074 | 66 ft | 179 kts | 14° |
| 2026-05-06 15:35 | 23.40846 | 113.31408 | 484 ft | 194 kts | 14° |
| 2026-05-06 15:35 | 23.42142 | 113.31763 | 1299 ft | 191 kts | 15° |
| 2026-05-06 15:36 | 23.43428 | 113.32137 | 2075 ft | 193 kts | 15° |
| 2026-05-06 15:36 | 23.44768 | 113.32542 | 2626 ft | 207 kts | 16° |
| 2026-05-06 15:36 | 23.46207 | 113.32978 | 3048 ft | 222 kts | 16° |
| 2026-05-06 15:36 | 23.47743 | 113.33442 | 3459 ft | 238 kts | 16° |
| 2026-05-06 15:37 | 23.49402 | 113.33942 | 3929 ft | 251 kts | 16° |
| 2026-05-06 15:37 | 23.51096 | 113.34451 | 4683 ft | 253 kts | 16° |
| 2026-05-06 15:37 | 23.52805 | 113.34964 | 5450 ft | 256 kts | 15° |
| 2026-05-06 15:37 | 23.54537 | 113.35482 | 6193 ft | 260 kts | 15° |
| 2026-05-06 15:38 | 23.56305 | 113.35943 | 6944 ft | 263 kts | 10° |
| 2026-05-06 15:38 | 23.58121 | 113.36297 | 7681 ft | 267 kts | 9° |
| 2026-05-06 15:38 | 23.59960 | 113.36639 | 8400 ft | 270 kts | 9° |
| 2026-05-06 15:38 | 23.61784 | 113.37217 | 9116 ft | 275 kts | 30° |
| 2026-05-06 15:39 | 23.63193 | 113.38623 | 9814 ft | 279 kts | 58° |
| 2026-05-06 15:39 | 23.63920 | 113.40627 | 10277 ft | 293 kts | 77° |
| 2026-05-06 15:39 | 23.64371 | 113.42864 | 10696 ft | 310 kts | 78° |
| 2026-05-06 15:39 | 23.64831 | 113.45236 | 11084 ft | 328 kts | 78° |
| 2026-05-06 15:40 | 23.65331 | 113.47738 | 11440 ft | 346 kts | 77° |
| 2026-05-06 15:40 | 23.65881 | 113.50413 | 11787 ft | 364 kts | 77° |
| 2026-05-06 15:40 | 23.66458 | 113.53177 | 12100 ft | 382 kts | 77° |
| 2026-05-06 15:40 | 23.67073 | 113.56099 | 12457 ft | 398 kts | 77° |
| 2026-05-06 15:41 | 23.67710 | 113.59115 | 13071 ft | 405 kts | 77° |
| 2026-05-06 15:41 | 23.68355 | 113.62171 | 13801 ft | 408 kts | 77° |
| 2026-05-06 15:41 | 23.68996 | 113.65205 | 14507 ft | 412 kts | 77° |
| 2026-05-06 15:41 | 23.69643 | 113.68278 | 15170 ft | 417 kts | 77° |
| 2026-05-06 15:42 | 23.70295 | 113.71378 | 15805 ft | 421 kts | 77° |
| 2026-05-06 15:42 | 23.70953 | 113.74514 | 16446 ft | 425 kts | 77° |
| 2026-05-06 15:42 | 23.71616 | 113.77679 | 17072 ft | 429 kts | 77° |
| 2026-05-06 15:42 | 23.72283 | 113.80873 | 17691 ft | 433 kts | 77° |
| 2026-05-06 15:43 | 23.72957 | 113.84100 | 18268 ft | 437 kts | 77° |
| 2026-05-06 15:43 | 23.73636 | 113.87352 | 18850 ft | 441 kts | 77° |
| 2026-05-06 15:43 | 23.74321 | 113.90637 | 19370 ft | 445 kts | 77° |
| 2026-05-06 15:43 | 23.74777 | 113.92829 | 19579 ft | 447 kts | 77° |
| 2026-05-06 15:44 | 23.75700 | 113.97264 | 19645 ft | 447 kts | 77° |
| 2026-05-06 15:44 | 23.76389 | 114.00578 | 19650 ft | 447 kts | 77° |
| 2026-05-06 15:44 | 23.76846 | 114.02776 | 19653 ft | 447 kts | 77° |
| 2026-05-06 15:44 | 23.77534 | 114.06091 | 19654 ft | 447 kts | 77° |
| 2026-05-06 15:45 | 23.78221 | 114.09410 | 19654 ft | 447 kts | 77° |
| 2026-05-06 15:45 | 23.78906 | 114.12729 | 19657 ft | 447 kts | 77° |
| 2026-05-06 15:45 | 23.79590 | 114.16047 | 19668 ft | 449 kts | 77° |
| 2026-05-06 15:45 | 23.80282 | 114.19405 | 19968 ft | 455 kts | 77° |
| 2026-05-06 15:46 | 23.80978 | 114.22783 | 20639 ft | 455 kts | 77° |
| 2026-05-06 15:46 | 23.81951 | 114.26074 | 21187 ft | 458 kts | 65° |
| 2026-05-06 15:46 | 23.83634 | 114.29035 | 21682 ft | 461 kts | 50° |
| 2026-05-06 15:46 | 23.85929 | 114.31485 | 22160 ft | 463 kts | 37° |
| 2026-05-06 15:47 | 23.88507 | 114.33612 | 22666 ft | 465 kts | 36° |
| 2026-05-06 15:47 | 23.91123 | 114.35713 | 23105 ft | 469 kts | 35° |
| 2026-05-06 15:47 | 23.93766 | 114.37837 | 23550 ft | 473 kts | 36° |
| 2026-05-06 15:47 | 23.96422 | 114.39983 | 23985 ft | 476 kts | 36° |
| 2026-05-06 15:48 | 23.99088 | 114.42150 | 24420 ft | 479 kts | 36° |
| 2026-05-06 15:48 | 24.01768 | 114.44337 | 24867 ft | 482 kts | 36° |
| 2026-05-06 15:48 | 24.04460 | 114.46541 | 25313 ft | 484 kts | 36° |
| 2026-05-06 15:48 | 24.07162 | 114.48757 | 25759 ft | 486 kts | 36° |
| 2026-05-06 15:49 | 24.09878 | 114.50986 | 26198 ft | 489 kts | 36° |
| 2026-05-06 15:49 | 24.12605 | 114.53225 | 26631 ft | 491 kts | 36° |
| 2026-05-06 15:49 | 24.15342 | 114.55474 | 27048 ft | 493 kts | 36° |
| 2026-05-06 15:49 | 24.18094 | 114.57737 | 27452 ft | 495 kts | 36° |
| 2026-05-06 15:50 | 24.20860 | 114.60013 | 27862 ft | 498 kts | 35° |
| 2026-05-06 15:50 | 24.23636 | 114.62299 | 28258 ft | 500 kts | 36° |
| 2026-05-06 15:50 | 24.26426 | 114.64596 | 28657 ft | 502 kts | 35° |
| 2026-05-06 15:50 | 24.29227 | 114.66905 | 29048 ft | 504 kts | 35° |
| 2026-05-06 15:51 | 24.32039 | 114.69224 | 29461 ft | 506 kts | 35° |
| 2026-05-06 15:51 | 24.34847 | 114.71542 | 30024 ft | 504 kts | 35° |
| 2026-05-06 15:51 | 24.37635 | 114.73846 | 30613 ft | 501 kts | 35° |
| 2026-05-06 15:51 | 24.40414 | 114.76144 | 31195 ft | 499 kts | 35° |
| 2026-05-06 15:52 | 24.43182 | 114.78433 | 31705 ft | 498 kts | 35° |
| 2026-05-06 15:52 | 24.45939 | 114.80715 | 32099 ft | 500 kts | 35° |
| 2026-05-06 15:52 | 24.48734 | 114.83028 | 32457 ft | 502 kts | 35° |
| 2026-05-06 15:52 | 24.51537 | 114.85342 | 32822 ft | 504 kts | 34° |
| 2026-05-06 15:53 | 24.54426 | 114.87532 | 33052 ft | 505 kts | 31° |
| 2026-05-06 15:53 | 24.57434 | 114.89529 | 33056 ft | 505 kts | 27° |
| 2026-05-06 15:53 | 24.63746 | 114.92874 | 33060 ft | 503 kts | 20° |
| 2026-05-06 15:54 | 24.70357 | 114.95327 | 33061 ft | 501 kts | 13° |
| 2026-05-06 15:54 | 24.77134 | 114.97067 | 33062 ft | 500 kts | 10° |
| 2026-05-06 15:55 | 24.83930 | 114.98697 | 33061 ft | 500 kts | 10° |
| 2026-05-06 15:55 | 24.90718 | 115.00337 | 33062 ft | 500 kts | 10° |
| 2026-05-06 15:56 | 24.97511 | 115.01990 | 33059 ft | 500 kts | 10° |
| 2026-05-06 15:56 | 25.04262 | 115.03639 | 33053 ft | 500 kts | 10° |
| 2026-05-06 15:57 | 25.11049 | 115.05299 | 33052 ft | 500 kts | 10° |
| 2026-05-06 15:57 | 25.17846 | 115.06966 | 33048 ft | 500 kts | 10° |
| 2026-05-06 15:58 | 25.24643 | 115.08579 | 33050 ft | 499 kts | 7° |
| 2026-05-06 15:58 | 25.31538 | 115.09132 | 33052 ft | 495 kts | 356° |
| 2026-05-06 15:59 | 25.38351 | 115.08242 | 33050 ft | 492 kts | 346° |
| 2026-05-06 15:59 | 25.44853 | 115.05971 | 33052 ft | 489 kts | 335° |
| 2026-05-06 16:00 | 25.51040 | 115.02854 | 33048 ft | 488 kts | 333° |
| 2026-05-06 16:00 | 25.57195 | 114.99662 | 33044 ft | 488 kts | 333° |
| 2026-05-06 16:01 | 25.63355 | 114.96482 | 33042 ft | 488 kts | 333° |
| 2026-05-06 16:01 | 25.69523 | 114.93304 | 33031 ft | 489 kts | 334° |
| 2026-05-06 16:02 | 25.76112 | 114.91450 | 33020 ft | 495 kts | 355° |
| 2026-05-06 16:02 | 25.79560 | 114.91670 | 33024 ft | 499 kts | 7° |
| 2026-05-06 16:02 | 25.82926 | 114.92663 | 33025 ft | 503 kts | 19° |
| 2026-05-06 16:03 | 25.86067 | 114.94408 | 33023 ft | 508 kts | 30° |
| 2026-05-06 16:03 | 25.88843 | 114.96849 | 33023 ft | 511 kts | 42° |
| 2026-05-06 16:03 | 25.93742 | 115.02602 | 33020 ft | 512 kts | 45° |
| 2026-05-06 16:04 | 25.98578 | 115.08426 | 33028 ft | 512 kts | 45° |
| 2026-05-06 16:04 | 26.03429 | 115.14235 | 33029 ft | 513 kts | 45° |
| 2026-05-06 16:05 | 26.08296 | 115.20043 | 33024 ft | 513 kts | 45° |
| 2026-05-06 16:05 | 26.13170 | 115.25857 | 33015 ft | 513 kts | 45° |
| 2026-05-06 16:06 | 26.18005 | 115.31630 | 33015 ft | 513 kts | 45° |
| 2026-05-06 16:06 | 26.22872 | 115.37450 | 33014 ft | 513 kts | 45° |
| 2026-05-06 16:07 | 26.27736 | 115.43273 | 33016 ft | 513 kts | 45° |
| 2026-05-06 16:07 | 26.32596 | 115.49099 | 33015 ft | 512 kts | 45° |
| 2026-05-06 16:08 | 26.37452 | 115.54928 | 33015 ft | 512 kts | 45° |
| 2026-05-06 16:08 | 26.42307 | 115.60765 | 33017 ft | 513 kts | 45° |
| 2026-05-06 16:09 | 26.47155 | 115.66600 | 33014 ft | 512 kts | 45° |
| 2026-05-06 16:09 | 26.52008 | 115.72447 | 33013 ft | 513 kts | 45° |
| 2026-05-06 16:10 | 26.56853 | 115.78295 | 33013 ft | 513 kts | 45° |
| 2026-05-06 16:10 | 26.61699 | 115.84152 | 33014 ft | 513 kts | 45° |
| 2026-05-06 16:11 | 26.66545 | 115.90015 | 33015 ft | 513 kts | 45° |
| 2026-05-06 16:11 | 26.71389 | 115.95885 | 33015 ft | 513 kts | 45° |
| 2026-05-06 16:12 | 26.76196 | 116.01718 | 33016 ft | 513 kts | 45° |
| 2026-05-06 16:12 | 26.81039 | 116.07602 | 33016 ft | 513 kts | 45° |
| 2026-05-06 16:13 | 26.85877 | 116.13492 | 33014 ft | 513 kts | 45° |
| 2026-05-06 16:13 | 26.90712 | 116.19386 | 33016 ft | 513 kts | 45° |
| 2026-05-06 16:14 | 26.95565 | 116.25262 | 33014 ft | 513 kts | 45° |
| 2026-05-06 16:14 | 27.00442 | 116.31127 | 33015 ft | 514 kts | 45° |
| 2026-05-06 16:15 | 27.05312 | 116.37000 | 33016 ft | 514 kts | 45° |
| 2026-05-06 16:15 | 27.10183 | 116.42887 | 33015 ft | 514 kts | 45° |
| 2026-05-06 16:16 | 27.15045 | 116.48775 | 33016 ft | 514 kts | 45° |
| 2026-05-06 16:16 | 27.19910 | 116.54675 | 33015 ft | 514 kts | 45° |
| 2026-05-06 16:17 | 27.24839 | 116.60506 | 33019 ft | 514 kts | 44° |
| 2026-05-06 16:17 | 27.29824 | 116.66273 | 33022 ft | 514 kts | 44° |
| 2026-05-06 16:18 | 27.34800 | 116.72053 | 33027 ft | 514 kts | 44° |
| 2026-05-06 16:18 | 27.39769 | 116.77851 | 33031 ft | 514 kts | 44° |
| 2026-05-06 16:19 | 27.44735 | 116.83659 | 33039 ft | 514 kts | 44° |
| 2026-05-06 16:19 | 27.49699 | 116.89474 | 33052 ft | 515 kts | 44° |
| 2026-05-06 16:20 | 27.54673 | 116.95274 | 33051 ft | 514 kts | 44° |
| 2026-05-06 16:20 | 27.59676 | 117.01044 | 33052 ft | 514 kts | 44° |
| 2026-05-06 16:21 | 27.64680 | 117.06825 | 33051 ft | 515 kts | 44° |
| 2026-05-06 16:21 | 27.69643 | 117.12575 | 33053 ft | 515 kts | 44° |
| 2026-05-06 16:22 | 27.74641 | 117.18375 | 33047 ft | 515 kts | 44° |
| 2026-05-06 16:22 | 27.79636 | 117.24181 | 33048 ft | 515 kts | 44° |
| 2026-05-06 16:23 | 27.84631 | 117.29994 | 33052 ft | 515 kts | 44° |
| 2026-05-06 16:23 | 27.89627 | 117.35819 | 33053 ft | 515 kts | 44° |
| 2026-05-06 16:24 | 27.94616 | 117.41644 | 33052 ft | 516 kts | 44° |
| 2026-05-06 16:24 | 27.99610 | 117.47483 | 33054 ft | 516 kts | 44° |
| 2026-05-06 16:25 | 28.04602 | 117.53331 | 33048 ft | 516 kts | 44° |
| 2026-05-06 16:25 | 28.09594 | 117.59178 | 33052 ft | 516 kts | 44° |
| 2026-05-06 16:26 | 28.14587 | 117.65031 | 33053 ft | 516 kts | 44° |
| 2026-05-06 16:26 | 28.19576 | 117.70891 | 33042 ft | 516 kts | 45° |
| 2026-05-06 16:27 | 28.24524 | 117.76714 | 33044 ft | 516 kts | 45° |
| 2026-05-06 16:27 | 28.29506 | 117.82588 | 33038 ft | 516 kts | 45° |
| 2026-05-06 16:28 | 28.34482 | 117.88462 | 33026 ft | 516 kts | 45° |
| 2026-05-06 16:28 | 28.39458 | 117.94347 | 33031 ft | 516 kts | 45° |
| 2026-05-06 16:29 | 28.44405 | 118.00269 | 33036 ft | 516 kts | 46° |
| 2026-05-06 16:29 | 28.49284 | 118.06275 | 33030 ft | 516 kts | 46° |
| 2026-05-06 16:30 | 28.52539 | 118.10293 | 33037 ft | 516 kts | 46° |
| 2026-05-06 16:30 | 28.59022 | 118.18294 | 33042 ft | 516 kts | 46° |
| 2026-05-06 16:31 | 28.63895 | 118.24312 | 33048 ft | 516 kts | 46° |
| 2026-05-06 16:31 | 28.68764 | 118.30332 | 33043 ft | 516 kts | 46° |
| 2026-05-06 16:32 | 28.73630 | 118.36356 | 33048 ft | 516 kts | 46° |
| 2026-05-06 16:32 | 28.78464 | 118.42350 | 33041 ft | 516 kts | 46° |
| 2026-05-06 16:33 | 28.83361 | 118.48430 | 33043 ft | 517 kts | 46° |
| 2026-05-06 16:34 | 28.90616 | 118.57457 | 33048 ft | 516 kts | 46° |
| 2026-05-06 16:34 | 28.94686 | 118.62529 | 33043 ft | 516 kts | 46° |
| 2026-05-06 16:35 | 29.00324 | 118.69566 | 33035 ft | 516 kts | 46° |
| 2026-05-06 16:35 | 29.05180 | 118.75636 | 33032 ft | 517 kts | 46° |
| 2026-05-06 16:36 | 29.09240 | 118.80720 | 33034 ft | 516 kts | 46° |
| 2026-05-06 16:36 | 29.14049 | 118.86750 | 33033 ft | 516 kts | 46° |
| 2026-05-06 16:37 | 29.18886 | 118.92825 | 33028 ft | 516 kts | 46° |
| 2026-05-06 16:37 | 29.23719 | 118.98907 | 33031 ft | 516 kts | 46° |
| 2026-05-06 16:38 | 29.28550 | 119.04992 | 33032 ft | 516 kts | 46° |
| 2026-05-06 16:38 | 29.33378 | 119.11089 | 33033 ft | 516 kts | 46° |
| 2026-05-06 16:39 | 29.38202 | 119.17192 | 33031 ft | 516 kts | 46° |
| 2026-05-06 16:39 | 29.43013 | 119.23295 | 33032 ft | 516 kts | 46° |
| 2026-05-06 16:40 | 29.47825 | 119.29413 | 33033 ft | 515 kts | 46° |
| 2026-05-06 16:40 | 29.52631 | 119.35535 | 33038 ft | 515 kts | 46° |
| 2026-05-06 16:41 | 29.57431 | 119.41648 | 33038 ft | 515 kts | 46° |
| 2026-05-06 16:41 | 29.62231 | 119.47765 | 33036 ft | 515 kts | 46° |
| 2026-05-06 16:42 | 29.67009 | 119.53900 | 33033 ft | 514 kts | 47° |
| 2026-05-06 16:42 | 29.71848 | 119.59961 | 33033 ft | 513 kts | 44° |
| 2026-05-06 16:43 | 29.77139 | 119.65468 | 33032 ft | 512 kts | 37° |
| 2026-05-06 16:43 | 29.82887 | 119.70294 | 33027 ft | 510 kts | 31° |
| 2026-05-06 16:44 | 29.88963 | 119.74506 | 33031 ft | 509 kts | 28° |
| 2026-05-06 16:44 | 29.95101 | 119.78606 | 33034 ft | 509 kts | 28° |
| 2026-05-06 16:45 | 30.01225 | 119.82711 | 33029 ft | 509 kts | 28° |
| 2026-05-06 16:45 | 30.07308 | 119.86807 | 33033 ft | 509 kts | 28° |
| 2026-05-06 16:46 | 30.13428 | 119.90940 | 33033 ft | 509 kts | 28° |
| 2026-05-06 16:46 | 30.19544 | 119.95075 | 33035 ft | 509 kts | 28° |
| 2026-05-06 16:47 | 30.25665 | 119.99221 | 33029 ft | 510 kts | 28° |
| 2026-05-06 16:47 | 30.31782 | 120.03370 | 33026 ft | 509 kts | 28° |
| 2026-05-06 16:48 | 30.37897 | 120.07525 | 33027 ft | 509 kts | 28° |
| 2026-05-06 16:48 | 30.44012 | 120.11687 | 33026 ft | 509 kts | 28° |
| 2026-05-06 16:49 | 30.50120 | 120.15850 | 33023 ft | 509 kts | 28° |
| 2026-05-06 16:49 | 30.56229 | 120.20018 | 33027 ft | 509 kts | 28° |
| 2026-05-06 16:50 | 30.62340 | 120.24196 | 33032 ft | 509 kts | 29° |
| 2026-05-06 16:50 | 30.68445 | 120.28380 | 33033 ft | 510 kts | 29° |
| 2026-05-06 16:51 | 30.74557 | 120.32574 | 33033 ft | 510 kts | 29° |
| 2026-05-06 16:51 | 30.80644 | 120.36822 | 33030 ft | 511 kts | 32° |
| 2026-05-06 16:52 | 30.86063 | 120.42182 | 33033 ft | 514 kts | 46° |
| 2026-05-06 16:52 | 30.90303 | 120.48900 | 33031 ft | 516 kts | 59° |
| 2026-05-06 16:53 | 30.93095 | 120.56546 | 33036 ft | 517 kts | 72° |
| 2026-05-06 16:53 | 30.95060 | 120.64626 | 33033 ft | 517 kts | 74° |
| 2026-05-06 16:54 | 30.96990 | 120.72712 | 33035 ft | 517 kts | 73° |
| 2026-05-06 16:54 | 30.98974 | 120.80789 | 33032 ft | 517 kts | 73° |
| 2026-05-06 16:55 | 31.00965 | 120.88854 | 33034 ft | 517 kts | 73° |
| 2026-05-06 16:55 | 31.02949 | 120.96940 | 33035 ft | 517 kts | 73° |
| 2026-05-06 16:56 | 31.04921 | 121.05013 | 33037 ft | 517 kts | 73° |
| 2026-05-06 16:56 | 31.06890 | 121.13101 | 33033 ft | 517 kts | 73° |
| 2026-05-06 16:57 | 31.08930 | 121.21156 | 33030 ft | 517 kts | 73° |
| 2026-05-06 16:57 | 31.10529 | 121.29335 | 33030 ft | 517 kts | 81° |
| 2026-05-06 16:58 | 31.11141 | 121.37427 | 33035 ft | 517 kts | 89° |
| 2026-05-06 16:58 | 31.10789 | 121.45812 | 33036 ft | 517 kts | 97° |
| 2026-05-06 16:59 | 31.09721 | 121.54114 | 33035 ft | 517 kts | 99° |
| 2026-05-06 16:59 | 31.08581 | 121.62414 | 33038 ft | 517 kts | 99° |
| 2026-05-06 17:00 | 31.07453 | 121.70708 | 33050 ft | 517 kts | 99° |
| 2026-05-06 17:00 | 31.06477 | 121.77917 | 33053 ft | 517 kts | 99° |
| 2026-05-06 17:01 | 31.05353 | 121.86205 | 33053 ft | 517 kts | 99° |
| 2026-05-06 17:01 | 31.04222 | 121.94497 | 33049 ft | 517 kts | 99° |
| 2026-05-06 17:02 | 31.03085 | 122.02783 | 33058 ft | 516 kts | 99° |
| 2026-05-06 17:02 | 31.01948 | 122.11062 | 33059 ft | 516 kts | 98° |
| 2026-05-06 17:02 | 31.01802 | 122.15244 | 33030 ft | 516 kts | 84° |
| 2026-05-06 17:03 | 31.02452 | 122.19076 | 33046 ft | 515 kts | 71° |
| 2026-05-06 17:03 | 31.03932 | 122.22868 | 33059 ft | 513 kts | 57° |
| 2026-05-06 17:03 | 31.06127 | 122.26132 | 33061 ft | 511 kts | 43° |
| 2026-05-06 17:03 | 31.08898 | 122.28693 | 33062 ft | 507 kts | 30° |
| 2026-05-06 17:04 | 31.12067 | 122.30455 | 33073 ft | 504 kts | 19° |
| 2026-05-06 17:04 | 31.18667 | 122.33310 | 33058 ft | 504 kts | 18° |
| 2026-05-06 17:05 | 31.25204 | 122.36142 | 33053 ft | 504 kts | 19° |
| 2026-05-06 17:05 | 31.31767 | 122.39050 | 33051 ft | 504 kts | 19° |
| 2026-05-06 17:06 | 31.38436 | 122.41526 | 33046 ft | 502 kts | 9° |
| 2026-05-06 17:06 | 31.45349 | 122.42312 | 33053 ft | 498 kts | 357° |
| 2026-05-06 17:07 | 31.52198 | 122.41338 | 33053 ft | 495 kts | 345° |
| 2026-05-06 17:07 | 31.58715 | 122.38810 | 33055 ft | 493 kts | 337° |
| 2026-05-06 17:08 | 31.65101 | 122.35862 | 33053 ft | 493 kts | 336° |
| 2026-05-06 17:08 | 31.71492 | 122.32917 | 33053 ft | 493 kts | 337° |
| 2026-05-06 17:09 | 31.77848 | 122.29888 | 33054 ft | 493 kts | 335° |
| 2026-05-06 17:09 | 31.84164 | 122.26739 | 33059 ft | 493 kts | 336° |
| 2026-05-06 17:10 | 31.90565 | 122.23818 | 33061 ft | 493 kts | 337° |
| 2026-05-06 17:10 | 31.96978 | 122.20924 | 33062 ft | 493 kts | 337° |
| 2026-05-06 17:11 | 32.03389 | 122.18025 | 33062 ft | 493 kts | 337° |
| 2026-05-06 17:11 | 32.09798 | 122.15120 | 33062 ft | 493 kts | 337° |
| 2026-05-06 17:12 | 32.16210 | 122.12209 | 33062 ft | 493 kts | 337° |
| 2026-05-06 17:12 | 32.22572 | 122.09316 | 33055 ft | 493 kts | 337° |
| 2026-05-06 17:13 | 32.29022 | 122.06378 | 33040 ft | 493 kts | 337° |
| 2026-05-06 17:13 | 32.35386 | 122.03476 | 33034 ft | 493 kts | 337° |
| 2026-05-06 17:14 | 32.41790 | 122.00550 | 33032 ft | 493 kts | 337° |
| 2026-05-06 17:14 | 32.48192 | 121.97622 | 33032 ft | 493 kts | 337° |
| 2026-05-06 17:15 | 32.54598 | 121.94686 | 33035 ft | 493 kts | 337° |
| 2026-05-06 17:15 | 32.61000 | 121.91747 | 33035 ft | 493 kts | 337° |
| 2026-05-06 17:16 | 32.67400 | 121.88806 | 33035 ft | 493 kts | 337° |
| 2026-05-06 17:16 | 32.73801 | 121.85860 | 33033 ft | 493 kts | 336° |
| 2026-05-06 17:17 | 32.80196 | 121.82912 | 33031 ft | 493 kts | 336° |